sensor_id;sensor_type;location;lat;lon;timestamp;P1;durP1;ratioP1;P2;durP2;ratioP2
11835;SDS011;5977;51.972;7.640;2023-09-30T00:01:49;1.47;;;1.00;;
11835;SDS011;5977;51.972;7.640;2023-09-30T00:04:18;1.43;;;0.97;;
11835;SDS011;5977;51.972;7.640;2023-09-30T00:06:47;1.47;;;1.00;;
11835;SDS011;5977;51.972;7.640;2023-09-30T00:09:15;1.47;;;1.00;;
11835;SDS011;5977;51.972;7.640;2023-09-30T00:11:43;1.47;;;1.00;;
11835;SDS011;5977;51.972;7.640;2023-09-30T00:14:11;1.47;;;1.00;;
11835;SDS011;5977;51.972;7.640;2023-09-30T00:16:39;1.47;;;1.00;;
11835;SDS011;5977;51.972;7.640;2023-09-30T00:19:07;1.43;;;1.00;;
11835;SDS011;5977;51.972;7.640;2023-09-30T00:21:36;1.47;;;1.03;;
11835;SDS011;5977;51.972;7.640;2023-09-30T00:24:05;1.47;;;1.00;;
11835;SDS011;5977;51.972;7.640;2023-09-30T00:26:34;1.47;;;1.00;;
11835;SDS011;5977;51.972;7.640;2023-09-30T00:29:02;1.47;;;1.10;;
11835;SDS011;5977;51.972;7.640;2023-09-30T00:31:31;1.47;;;1.00;;
11835;SDS011;5977;51.972;7.640;2023-09-30T00:33:59;1.43;;;1.00;;
11835;SDS011;5977;51.972;7.640;2023-09-30T00:36:27;1.43;;;0.97;;
11835;SDS011;5977;51.972;7.640;2023-09-30T00:38:55;1.47;;;1.00;;
11835;SDS011;5977;51.972;7.640;2023-09-30T00:41:25;1.37;;;0.90;;
11835;SDS011;5977;51.972;7.640;2023-09-30T00:43:53;1.47;;;1.00;;
11835;SDS011;5977;51.972;7.640;2023-09-30T00:46:25;1.47;;;1.00;;
11835;SDS011;5977;51.972;7.640;2023-09-30T00:48:57;1.47;;;1.00;;
11835;SDS011;5977;51.972;7.640;2023-09-30T00:51:27;1.43;;;1.00;;
11835;SDS011;5977;51.972;7.640;2023-09-30T00:53:56;1.47;;;1.00;;
11835;SDS011;5977;51.972;7.640;2023-09-30T00:56:28;1.43;;;0.97;;
11835;SDS011;5977;51.972;7.640;2023-09-30T00:58:57;1.43;;;0.90;;
11835;SDS011;5977;51.972;7.640;2023-09-30T01:01:26;1.37;;;0.90;;
11835;SDS011;5977;51.972;7.640;2023-09-30T01:03:54;1.43;;;1.00;;
11835;SDS011;5977;51.972;7.640;2023-09-30T01:06:23;1.43;;;1.00;;
11835;SDS011;5977;51.972;7.640;2023-09-30T01:08:52;1.37;;;0.90;;
11835;SDS011;5977;51.972;7.640;2023-09-30T01:11:20;1.37;;;0.97;;
11835;SDS011;5977;51.972;7.640;2023-09-30T01:13:50;1.43;;;1.00;;
11835;SDS011;5977;51.972;7.640;2023-09-30T01:16:19;1.47;;;1.00;;
11835;SDS011;5977;51.972;7.640;2023-09-30T01:18:47;1.43;;;0.97;;
11835;SDS011;5977;51.972;7.640;2023-09-30T01:21:16;1.37;;;0.93;;
11835;SDS011;5977;51.972;7.640;2023-09-30T01:23:47;1.37;;;1.00;;
11835;SDS011;5977;51.972;7.640;2023-09-30T01:26:15;1.43;;;1.00;;
11835;SDS011;5977;51.972;7.640;2023-09-30T01:28:43;1.47;;;1.00;;
11835;SDS011;5977;51.972;7.640;2023-09-30T01:31:11;1.47;;;1.00;;
11835;SDS011;5977;51.972;7.640;2023-09-30T01:33:39;1.47;;;1.00;;
11835;SDS011;5977;51.972;7.640;2023-09-30T01:36:07;1.43;;;1.00;;
11835;SDS011;5977;51.972;7.640;2023-09-30T01:38:35;1.43;;;1.00;;
11835;SDS011;5977;51.972;7.640;2023-09-30T01:41:05;1.47;;;1.10;;
11835;SDS011;5977;51.972;7.640;2023-09-30T01:43:34;1.47;;;1.07;;
11835;SDS011;5977;51.972;7.640;2023-09-30T01:46:03;1.40;;;0.90;;
11835;SDS011;5977;51.972;7.640;2023-09-30T01:48:32;1.43;;;1.03;;
11835;SDS011;5977;51.972;7.640;2023-09-30T01:51:01;1.47;;;1.00;;
11835;SDS011;5977;51.972;7.640;2023-09-30T01:53:29;1.47;;;1.00;;
11835;SDS011;5977;51.972;7.640;2023-09-30T01:55:57;1.47;;;1.00;;
11835;SDS011;5977;51.972;7.640;2023-09-30T01:58:27;1.47;;;1.00;;
11835;SDS011;5977;51.972;7.640;2023-09-30T02:01:01;1.43;;;1.00;;
11835;SDS011;5977;51.972;7.640;2023-09-30T02:03:29;1.40;;;0.97;;
11835;SDS011;5977;51.972;7.640;2023-09-30T02:05:57;1.47;;;1.07;;
11835;SDS011;5977;51.972;7.640;2023-09-30T02:08:25;1.47;;;1.00;;
11835;SDS011;5977;51.972;7.640;2023-09-30T02:10:53;1.43;;;1.00;;
11835;SDS011;5977;51.972;7.640;2023-09-30T02:13:21;1.47;;;1.03;;
11835;SDS011;5977;51.972;7.640;2023-09-30T02:15:51;1.47;;;1.00;;
11835;SDS011;5977;51.972;7.640;2023-09-30T02:18:21;1.47;;;1.03;;
11835;SDS011;5977;51.972;7.640;2023-09-30T02:20:50;1.47;;;1.07;;
11835;SDS011;5977;51.972;7.640;2023-09-30T02:23:19;1.47;;;1.10;;
11835;SDS011;5977;51.972;7.640;2023-09-30T02:25:49;1.47;;;1.00;;
11835;SDS011;5977;51.972;7.640;2023-09-30T02:28:18;1.47;;;1.07;;
11835;SDS011;5977;51.972;7.640;2023-09-30T02:30:46;1.47;;;1.10;;
11835;SDS011;5977;51.972;7.640;2023-09-30T02:33:16;1.47;;;1.10;;
11835;SDS011;5977;51.972;7.640;2023-09-30T02:35:44;1.47;;;1.03;;
11835;SDS011;5977;51.972;7.640;2023-09-30T02:38:13;1.47;;;1.00;;
11835;SDS011;5977;51.972;7.640;2023-09-30T02:40:44;1.47;;;1.00;;
11835;SDS011;5977;51.972;7.640;2023-09-30T02:43:12;1.47;;;1.00;;
11835;SDS011;5977;51.972;7.640;2023-09-30T02:45:40;1.47;;;1.03;;
11835;SDS011;5977;51.972;7.640;2023-09-30T02:48:09;1.47;;;1.00;;
11835;SDS011;5977;51.972;7.640;2023-09-30T02:50:38;1.47;;;1.10;;
11835;SDS011;5977;51.972;7.640;2023-09-30T02:53:10;1.47;;;1.00;;
11835;SDS011;5977;51.972;7.640;2023-09-30T02:55:39;1.47;;;1.10;;
11835;SDS011;5977;51.972;7.640;2023-09-30T02:58:09;1.47;;;1.10;;
11835;SDS011;5977;51.972;7.640;2023-09-30T03:00:37;1.47;;;1.10;;
11835;SDS011;5977;51.972;7.640;2023-09-30T03:03:05;1.47;;;0.97;;
11835;SDS011;5977;51.972;7.640;2023-09-30T03:05:34;1.47;;;1.07;;
11835;SDS011;5977;51.972;7.640;2023-09-30T03:08:05;1.47;;;1.07;;
11835;SDS011;5977;51.972;7.640;2023-09-30T03:10:33;1.47;;;1.10;;
11835;SDS011;5977;51.972;7.640;2023-09-30T03:13:05;1.47;;;1.07;;
11835;SDS011;5977;51.972;7.640;2023-09-30T03:15:35;1.47;;;1.10;;
11835;SDS011;5977;51.972;7.640;2023-09-30T03:18:05;1.47;;;1.03;;
11835;SDS011;5977;51.972;7.640;2023-09-30T03:20:33;1.47;;;1.00;;
11835;SDS011;5977;51.972;7.640;2023-09-30T03:23:02;1.47;;;1.07;;
11835;SDS011;5977;51.972;7.640;2023-09-30T03:25:33;1.47;;;1.00;;
11835;SDS011;5977;51.972;7.640;2023-09-30T03:28:01;1.47;;;1.10;;
11835;SDS011;5977;51.972;7.640;2023-09-30T03:30:32;1.47;;;1.10;;
11835;SDS011;5977;51.972;7.640;2023-09-30T03:33:00;1.47;;;1.03;;
11835;SDS011;5977;51.972;7.640;2023-09-30T03:35:30;1.47;;;1.00;;
11835;SDS011;5977;51.972;7.640;2023-09-30T03:37:58;1.47;;;1.00;;
11835;SDS011;5977;51.972;7.640;2023-09-30T03:40:28;1.43;;;1.00;;
11835;SDS011;5977;51.972;7.640;2023-09-30T03:43:01;1.47;;;1.00;;
11835;SDS011;5977;51.972;7.640;2023-09-30T03:45:29;1.47;;;1.03;;
11835;SDS011;5977;51.972;7.640;2023-09-30T03:47:59;1.47;;;1.10;;
11835;SDS011;5977;51.972;7.640;2023-09-30T03:50:28;1.47;;;0.97;;
11835;SDS011;5977;51.972;7.640;2023-09-30T03:53:00;1.47;;;1.10;;
11835;SDS011;5977;51.972;7.640;2023-09-30T03:55:28;1.47;;;1.00;;
11835;SDS011;5977;51.972;7.640;2023-09-30T03:57:58;1.47;;;1.10;;
11835;SDS011;5977;51.972;7.640;2023-09-30T04:00:27;1.47;;;1.10;;
11835;SDS011;5977;51.972;7.640;2023-09-30T04:02:55;1.47;;;1.10;;
11835;SDS011;5977;51.972;7.640;2023-09-30T04:05:25;1.47;;;1.10;;
11835;SDS011;5977;51.972;7.640;2023-09-30T04:07:56;1.43;;;1.00;;
11835;SDS011;5977;51.972;7.640;2023-09-30T04:10:24;1.47;;;1.07;;
11835;SDS011;5977;51.972;7.640;2023-09-30T04:12:52;1.47;;;1.00;;
11835;SDS011;5977;51.972;7.640;2023-09-30T04:15:20;1.47;;;1.03;;
11835;SDS011;5977;51.972;7.640;2023-09-30T04:17:50;1.47;;;1.07;;
11835;SDS011;5977;51.972;7.640;2023-09-30T04:20:19;1.43;;;1.00;;
11835;SDS011;5977;51.972;7.640;2023-09-30T04:22:50;1.43;;;0.97;;
11835;SDS011;5977;51.972;7.640;2023-09-30T04:25:23;1.47;;;1.03;;
11835;SDS011;5977;51.972;7.640;2023-09-30T04:27:52;1.47;;;1.03;;
11835;SDS011;5977;51.972;7.640;2023-09-30T04:30:20;1.47;;;1.00;;
11835;SDS011;5977;51.972;7.640;2023-09-30T04:32:51;1.47;;;1.10;;
11835;SDS011;5977;51.972;7.640;2023-09-30T04:35:19;1.47;;;1.00;;
11835;SDS011;5977;51.972;7.640;2023-09-30T04:37:47;1.47;;;1.10;;
11835;SDS011;5977;51.972;7.640;2023-09-30T04:40:15;1.47;;;1.03;;
11835;SDS011;5977;51.972;7.640;2023-09-30T04:42:46;1.43;;;1.00;;
11835;SDS011;5977;51.972;7.640;2023-09-30T04:45:14;1.47;;;1.10;;
11835;SDS011;5977;51.972;7.640;2023-09-30T04:47:46;1.47;;;1.07;;
11835;SDS011;5977;51.972;7.640;2023-09-30T04:50:16;1.47;;;1.07;;
11835;SDS011;5977;51.972;7.640;2023-09-30T04:52:47;1.47;;;1.10;;
11835;SDS011;5977;51.972;7.640;2023-09-30T04:55:16;1.47;;;1.10;;
11835;SDS011;5977;51.972;7.640;2023-09-30T04:57:45;1.47;;;1.10;;
11835;SDS011;5977;51.972;7.640;2023-09-30T05:00:15;1.47;;;1.10;;
11835;SDS011;5977;51.972;7.640;2023-09-30T05:02:45;1.47;;;1.10;;
11835;SDS011;5977;51.972;7.640;2023-09-30T05:05:14;1.47;;;1.10;;
11835;SDS011;5977;51.972;7.640;2023-09-30T05:07:43;1.47;;;1.00;;
11835;SDS011;5977;51.972;7.640;2023-09-30T05:10:13;1.47;;;1.07;;
11835;SDS011;5977;51.972;7.640;2023-09-30T05:12:42;1.50;;;1.10;;
11835;SDS011;5977;51.972;7.640;2023-09-30T05:15:14;1.47;;;1.10;;
11835;SDS011;5977;51.972;7.640;2023-09-30T05:17:43;1.47;;;1.10;;
11835;SDS011;5977;51.972;7.640;2023-09-30T05:20:13;1.47;;;1.10;;
11835;SDS011;5977;51.972;7.640;2023-09-30T05:22:45;1.47;;;1.03;;
11835;SDS011;5977;51.972;7.640;2023-09-30T05:25:15;1.47;;;1.10;;
11835;SDS011;5977;51.972;7.640;2023-09-30T05:27:45;1.47;;;1.10;;
11835;SDS011;5977;51.972;7.640;2023-09-30T05:30:15;1.47;;;1.00;;
11835;SDS011;5977;51.972;7.640;2023-09-30T05:32:46;1.47;;;1.10;;
11835;SDS011;5977;51.972;7.640;2023-09-30T05:35:14;1.47;;;1.10;;
11835;SDS011;5977;51.972;7.640;2023-09-30T05:37:45;1.47;;;1.03;;
11835;SDS011;5977;51.972;7.640;2023-09-30T05:40:13;1.47;;;1.10;;
11835;SDS011;5977;51.972;7.640;2023-09-30T05:42:49;1.47;;;1.07;;
11835;SDS011;5977;51.972;7.640;2023-09-30T05:45:18;1.47;;;1.03;;
11835;SDS011;5977;51.972;7.640;2023-09-30T05:47:46;1.47;;;1.10;;
11835;SDS011;5977;51.972;7.640;2023-09-30T05:50:17;1.47;;;1.03;;
11835;SDS011;5977;51.972;7.640;2023-09-30T05:52:52;1.47;;;1.10;;
11835;SDS011;5977;51.972;7.640;2023-09-30T05:55:21;1.47;;;1.00;;
11835;SDS011;5977;51.972;7.640;2023-09-30T05:57:51;1.47;;;1.10;;
11835;SDS011;5977;51.972;7.640;2023-09-30T06:00:20;1.47;;;1.10;;
11835;SDS011;5977;51.972;7.640;2023-09-30T06:02:49;1.47;;;1.10;;
11835;SDS011;5977;51.972;7.640;2023-09-30T06:05:18;1.47;;;1.10;;
11835;SDS011;5977;51.972;7.640;2023-09-30T06:07:48;1.47;;;1.07;;
11835;SDS011;5977;51.972;7.640;2023-09-30T06:10:17;1.47;;;1.03;;
11835;SDS011;5977;51.972;7.640;2023-09-30T06:12:46;1.47;;;1.07;;
11835;SDS011;5977;51.972;7.640;2023-09-30T06:15:14;1.47;;;1.03;;
11835;SDS011;5977;51.972;7.640;2023-09-30T06:17:48;1.47;;;1.07;;
11835;SDS011;5977;51.972;7.640;2023-09-30T06:20:18;1.47;;;1.03;;
11835;SDS011;5977;51.972;7.640;2023-09-30T06:22:48;1.47;;;1.10;;
11835;SDS011;5977;51.972;7.640;2023-09-30T06:25:18;1.47;;;1.00;;
11835;SDS011;5977;51.972;7.640;2023-09-30T06:27:47;1.47;;;1.00;;
11835;SDS011;5977;51.972;7.640;2023-09-30T06:30:16;1.47;;;1.03;;
11835;SDS011;5977;51.972;7.640;2023-09-30T06:32:45;1.47;;;1.00;;
11835;SDS011;5977;51.972;7.640;2023-09-30T06:35:14;1.47;;;1.07;;
11835;SDS011;5977;51.972;7.640;2023-09-30T06:37:42;1.47;;;0.97;;
11835;SDS011;5977;51.972;7.640;2023-09-30T06:40:12;1.47;;;1.00;;
11835;SDS011;5977;51.972;7.640;2023-09-30T06:42:41;1.43;;;1.00;;
11835;SDS011;5977;51.972;7.640;2023-09-30T06:45:10;1.47;;;1.10;;
11835;SDS011;5977;51.972;7.640;2023-09-30T06:47:39;1.43;;;0.93;;
11835;SDS011;5977;51.972;7.640;2023-09-30T06:50:08;1.47;;;1.00;;
11835;SDS011;5977;51.972;7.640;2023-09-30T06:52:39;1.47;;;1.00;;
11835;SDS011;5977;51.972;7.640;2023-09-30T06:55:09;1.50;;;1.10;;
11835;SDS011;5977;51.972;7.640;2023-09-30T06:57:41;1.43;;;0.90;;
11835;SDS011;5977;51.972;7.640;2023-09-30T07:00:11;1.47;;;1.00;;
11835;SDS011;5977;51.972;7.640;2023-09-30T07:02:41;1.47;;;1.03;;
11835;SDS011;5977;51.972;7.640;2023-09-30T07:05:09;1.43;;;1.00;;
11835;SDS011;5977;51.972;7.640;2023-09-30T07:07:38;1.50;;;1.10;;
11835;SDS011;5977;51.972;7.640;2023-09-30T07:10:08;1.40;;;0.97;;
11835;SDS011;5977;51.972;7.640;2023-09-30T07:12:37;1.43;;;1.00;;
11835;SDS011;5977;51.972;7.640;2023-09-30T07:15:08;1.30;;;0.93;;
11835;SDS011;5977;51.972;7.640;2023-09-30T07:17:36;1.20;;;0.83;;
11835;SDS011;5977;51.972;7.640;2023-09-30T07:20:08;1.30;;;0.93;;
11835;SDS011;5977;51.972;7.640;2023-09-30T07:22:37;1.27;;;0.93;;
11835;SDS011;5977;51.972;7.640;2023-09-30T07:25:08;1.27;;;0.93;;
11835;SDS011;5977;51.972;7.640;2023-09-30T07:27:36;1.30;;;0.90;;
11835;SDS011;5977;51.972;7.640;2023-09-30T07:30:05;1.27;;;0.90;;
11835;SDS011;5977;51.972;7.640;2023-09-30T07:32:35;1.30;;;0.90;;
11835;SDS011;5977;51.972;7.640;2023-09-30T07:35:03;1.37;;;0.90;;
11835;SDS011;5977;51.972;7.640;2023-09-30T07:37:31;1.37;;;0.93;;
11835;SDS011;5977;51.972;7.640;2023-09-30T07:40:00;1.33;;;0.90;;
11835;SDS011;5977;51.972;7.640;2023-09-30T07:42:28;1.37;;;0.93;;
11835;SDS011;5977;51.972;7.640;2023-09-30T07:44:56;1.40;;;1.00;;
11835;SDS011;5977;51.972;7.640;2023-09-30T07:47:24;1.30;;;0.93;;
11835;SDS011;5977;51.972;7.640;2023-09-30T07:49:53;1.37;;;0.93;;
11835;SDS011;5977;51.972;7.640;2023-09-30T07:52:22;1.30;;;0.87;;
11835;SDS011;5977;51.972;7.640;2023-09-30T07:54:49;1.37;;;1.00;;
11835;SDS011;5977;51.972;7.640;2023-09-30T07:57:17;1.30;;;0.83;;
11835;SDS011;5977;51.972;7.640;2023-09-30T07:59:46;1.37;;;1.00;;
11835;SDS011;5977;51.972;7.640;2023-09-30T08:02:15;1.37;;;0.97;;
11835;SDS011;5977;51.972;7.640;2023-09-30T08:04:43;1.33;;;0.90;;
11835;SDS011;5977;51.972;7.640;2023-09-30T08:07:13;1.37;;;0.93;;
11835;SDS011;5977;51.972;7.640;2023-09-30T08:09:41;1.40;;;1.00;;
11835;SDS011;5977;51.972;7.640;2023-09-30T08:12:09;1.37;;;0.93;;
11835;SDS011;5977;51.972;7.640;2023-09-30T08:14:37;1.40;;;1.00;;
11835;SDS011;5977;51.972;7.640;2023-09-30T08:17:05;1.40;;;1.03;;
11835;SDS011;5977;51.972;7.640;2023-09-30T08:19:33;1.47;;;1.10;;
11835;SDS011;5977;51.972;7.640;2023-09-30T08:22:00;1.47;;;1.10;;
11835;SDS011;5977;51.972;7.640;2023-09-30T08:24:30;1.43;;;1.07;;
11835;SDS011;5977;51.972;7.640;2023-09-30T08:26:58;1.40;;;1.00;;
11835;SDS011;5977;51.972;7.640;2023-09-30T08:29:27;1.43;;;1.03;;
11835;SDS011;5977;51.972;7.640;2023-09-30T08:31:54;1.37;;;0.93;;
11835;SDS011;5977;51.972;7.640;2023-09-30T08:34:22;1.37;;;0.97;;
11835;SDS011;5977;51.972;7.640;2023-09-30T08:36:50;1.37;;;0.97;;
11835;SDS011;5977;51.972;7.640;2023-09-30T08:39:18;1.33;;;0.97;;
11835;SDS011;5977;51.972;7.640;2023-09-30T08:41:48;1.37;;;0.97;;
11835;SDS011;5977;51.972;7.640;2023-09-30T08:44:17;1.37;;;1.00;;
11835;SDS011;5977;51.972;7.640;2023-09-30T08:46:45;1.37;;;0.93;;
11835;SDS011;5977;51.972;7.640;2023-09-30T08:49:14;1.37;;;0.97;;
11835;SDS011;5977;51.972;7.640;2023-09-30T08:51:42;1.33;;;0.90;;
11835;SDS011;5977;51.972;7.640;2023-09-30T08:54:10;1.33;;;0.90;;
11835;SDS011;5977;51.972;7.640;2023-09-30T08:56:39;1.30;;;0.90;;
11835;SDS011;5977;51.972;7.640;2023-09-30T08:59:12;1.37;;;1.00;;
11835;SDS011;5977;51.972;7.640;2023-09-30T09:01:41;1.30;;;0.90;;
11835;SDS011;5977;51.972;7.640;2023-09-30T09:04:09;1.37;;;0.97;;
11835;SDS011;5977;51.972;7.640;2023-09-30T09:06:38;1.37;;;0.90;;
11835;SDS011;5977;51.972;7.640;2023-09-30T09:09:15;1.37;;;1.00;;
11835;SDS011;5977;51.972;7.640;2023-09-30T09:11:44;1.33;;;0.90;;
11835;SDS011;5977;51.972;7.640;2023-09-30T09:14:14;1.33;;;0.90;;
11835;SDS011;5977;51.972;7.640;2023-09-30T09:19:28;1.33;;;0.93;;
11835;SDS011;5977;51.972;7.640;2023-09-30T09:21:57;1.37;;;0.97;;
11835;SDS011;5977;51.972;7.640;2023-09-30T09:24:27;1.33;;;0.90;;
11835;SDS011;5977;51.972;7.640;2023-09-30T09:27:05;1.30;;;0.90;;
11835;SDS011;5977;51.972;7.640;2023-09-30T09:29:39;1.33;;;0.90;;
11835;SDS011;5977;51.972;7.640;2023-09-30T09:32:09;1.33;;;0.97;;
11835;SDS011;5977;51.972;7.640;2023-09-30T09:34:39;1.30;;;0.90;;
11835;SDS011;5977;51.972;7.640;2023-09-30T09:37:16;1.37;;;0.97;;
11835;SDS011;5977;51.972;7.640;2023-09-30T09:39:48;1.37;;;1.00;;
11835;SDS011;5977;51.972;7.640;2023-09-30T09:42:26;1.33;;;0.93;;
11835;SDS011;5977;51.972;7.640;2023-09-30T09:44:57;1.37;;;0.97;;
11835;SDS011;5977;51.972;7.640;2023-09-30T09:47:26;1.37;;;0.97;;
11835;SDS011;5977;51.972;7.640;2023-09-30T09:49:56;1.40;;;1.00;;
11835;SDS011;5977;51.972;7.640;2023-09-30T09:52:25;1.40;;;1.00;;
11835;SDS011;5977;51.972;7.640;2023-09-30T09:54:54;1.30;;;0.90;;
11835;SDS011;5977;51.972;7.640;2023-09-30T09:57:24;1.37;;;1.00;;
11835;SDS011;5977;51.972;7.640;2023-09-30T09:59:54;1.40;;;1.00;;
11835;SDS011;5977;51.972;7.640;2023-09-30T10:02:25;1.37;;;1.00;;
11835;SDS011;5977;51.972;7.640;2023-09-30T10:04:54;1.33;;;1.00;;
11835;SDS011;5977;51.972;7.640;2023-09-30T10:07:25;1.30;;;0.90;;
11835;SDS011;5977;51.972;7.640;2023-09-30T10:09:55;1.30;;;0.93;;
11835;SDS011;5977;51.972;7.640;2023-09-30T10:12:27;1.40;;;1.00;;
11835;SDS011;5977;51.972;7.640;2023-09-30T10:18:06;1.43;;;1.07;;
11835;SDS011;5977;51.972;7.640;2023-09-30T10:20:41;1.43;;;1.07;;
11835;SDS011;5977;51.972;7.640;2023-09-30T10:23:26;1.47;;;1.07;;
11835;SDS011;5977;51.972;7.640;2023-09-30T10:26:13;1.50;;;1.17;;
11835;SDS011;5977;51.972;7.640;2023-09-30T10:28:45;1.50;;;1.13;;
11835;SDS011;5977;51.972;7.640;2023-09-30T10:31:16;1.50;;;1.13;;
11835;SDS011;5977;51.972;7.640;2023-09-30T10:36:50;1.50;;;1.13;;
11835;SDS011;5977;51.972;7.640;2023-09-30T10:42:28;1.50;;;1.17;;
11835;SDS011;5977;51.972;7.640;2023-09-30T10:51:11;1.47;;;1.07;;
11835;SDS011;5977;51.972;7.640;2023-09-30T10:53:41;1.50;;;1.13;;
11835;SDS011;5977;51.972;7.640;2023-09-30T10:56:11;1.43;;;1.00;;
11835;SDS011;5977;51.972;7.640;2023-09-30T10:58:42;1.47;;;1.10;;
11835;SDS011;5977;51.972;7.640;2023-09-30T11:01:11;1.43;;;1.07;;
11835;SDS011;5977;51.972;7.640;2023-09-30T11:03:40;1.43;;;1.10;;
11835;SDS011;5977;51.972;7.640;2023-09-30T11:06:12;1.47;;;1.10;;
11835;SDS011;5977;51.972;7.640;2023-09-30T11:08:45;1.50;;;1.13;;
11835;SDS011;5977;51.972;7.640;2023-09-30T11:11:14;1.47;;;1.10;;
11835;SDS011;5977;51.972;7.640;2023-09-30T11:13:42;1.43;;;1.07;;
11835;SDS011;5977;51.972;7.640;2023-09-30T11:16:10;1.43;;;1.03;;
11835;SDS011;5977;51.972;7.640;2023-09-30T11:18:39;1.40;;;1.07;;
11835;SDS011;5977;51.972;7.640;2023-09-30T11:21:08;1.47;;;1.07;;
11835;SDS011;5977;51.972;7.640;2023-09-30T11:23:38;1.37;;;0.97;;
11835;SDS011;5977;51.972;7.640;2023-09-30T11:26:07;1.40;;;1.00;;
11835;SDS011;5977;51.972;7.640;2023-09-30T11:28:37;1.40;;;0.97;;
11835;SDS011;5977;51.972;7.640;2023-09-30T11:31:09;1.37;;;0.97;;
11835;SDS011;5977;51.972;7.640;2023-09-30T11:33:49;1.40;;;0.97;;
11835;SDS011;5977;51.972;7.640;2023-09-30T11:36:20;1.53;;;1.27;;
11835;SDS011;5977;51.972;7.640;2023-09-30T11:38:51;1.40;;;1.00;;
11835;SDS011;5977;51.972;7.640;2023-09-30T11:41:20;1.40;;;1.00;;
11835;SDS011;5977;51.972;7.640;2023-09-30T11:43:58;1.40;;;1.03;;
11835;SDS011;5977;51.972;7.640;2023-09-30T11:46:47;1.47;;;1.07;;
11835;SDS011;5977;51.972;7.640;2023-09-30T11:49:23;1.40;;;1.03;;
11835;SDS011;5977;51.972;7.640;2023-09-30T11:51:55;1.40;;;1.00;;
11835;SDS011;5977;51.972;7.640;2023-09-30T11:54:29;1.40;;;1.00;;
11835;SDS011;5977;51.972;7.640;2023-09-30T11:56:59;1.40;;;0.97;;
11835;SDS011;5977;51.972;7.640;2023-09-30T11:59:27;1.40;;;1.00;;
11835;SDS011;5977;51.972;7.640;2023-09-30T12:01:55;1.40;;;0.97;;
11835;SDS011;5977;51.972;7.640;2023-09-30T12:04:39;1.40;;;1.03;;
11835;SDS011;5977;51.972;7.640;2023-09-30T12:07:08;1.37;;;0.93;;
11835;SDS011;5977;51.972;7.640;2023-09-30T12:09:37;1.40;;;1.00;;
11835;SDS011;5977;51.972;7.640;2023-09-30T12:12:07;1.37;;;0.93;;
11835;SDS011;5977;51.972;7.640;2023-09-30T12:14:37;1.37;;;0.90;;
11835;SDS011;5977;51.972;7.640;2023-09-30T12:17:05;1.33;;;0.93;;
11835;SDS011;5977;51.972;7.640;2023-09-30T12:19:37;1.37;;;0.90;;
11835;SDS011;5977;51.972;7.640;2023-09-30T12:22:05;1.30;;;0.90;;
11835;SDS011;5977;51.972;7.640;2023-09-30T12:24:33;1.27;;;0.87;;
11835;SDS011;5977;51.972;7.640;2023-09-30T12:27:02;1.33;;;0.90;;
11835;SDS011;5977;51.972;7.640;2023-09-30T12:29:31;1.43;;;1.03;;
11835;SDS011;5977;51.972;7.640;2023-09-30T12:31:58;1.43;;;1.03;;
11835;SDS011;5977;51.972;7.640;2023-09-30T12:34:28;1.47;;;1.10;;
11835;SDS011;5977;51.972;7.640;2023-09-30T12:36:57;1.43;;;1.10;;
11835;SDS011;5977;51.972;7.640;2023-09-30T12:39:25;1.47;;;1.10;;
11835;SDS011;5977;51.972;7.640;2023-09-30T12:41:56;1.43;;;1.03;;
11835;SDS011;5977;51.972;7.640;2023-09-30T12:44:26;1.43;;;1.07;;
11835;SDS011;5977;51.972;7.640;2023-09-30T12:46:53;1.47;;;1.07;;
11835;SDS011;5977;51.972;7.640;2023-09-30T12:49:21;1.47;;;1.10;;
11835;SDS011;5977;51.972;7.640;2023-09-30T12:51:49;1.47;;;1.10;;
11835;SDS011;5977;51.972;7.640;2023-09-30T12:54:17;1.43;;;1.03;;
11835;SDS011;5977;51.972;7.640;2023-09-30T12:56:45;1.47;;;1.07;;
11835;SDS011;5977;51.972;7.640;2023-09-30T12:59:14;1.47;;;1.07;;
11835;SDS011;5977;51.972;7.640;2023-09-30T13:01:43;1.47;;;1.10;;
11835;SDS011;5977;51.972;7.640;2023-09-30T13:04:13;1.47;;;1.10;;
11835;SDS011;5977;51.972;7.640;2023-09-30T13:06:41;1.37;;;1.03;;
11835;SDS011;5977;51.972;7.640;2023-09-30T13:09:08;1.40;;;1.00;;
11835;SDS011;5977;51.972;7.640;2023-09-30T13:11:38;1.40;;;1.00;;
11835;SDS011;5977;51.972;7.640;2023-09-30T13:14:06;1.37;;;1.00;;
11835;SDS011;5977;51.972;7.640;2023-09-30T13:16:34;1.43;;;1.03;;
11835;SDS011;5977;51.972;7.640;2023-09-30T13:19:03;1.47;;;1.10;;
11835;SDS011;5977;51.972;7.640;2023-09-30T13:21:32;1.40;;;1.03;;
11835;SDS011;5977;51.972;7.640;2023-09-30T13:24:00;1.40;;;1.07;;
11835;SDS011;5977;51.972;7.640;2023-09-30T13:26:27;1.40;;;1.00;;
11835;SDS011;5977;51.972;7.640;2023-09-30T13:28:56;1.43;;;1.03;;
11835;SDS011;5977;51.972;7.640;2023-09-30T13:31:24;1.43;;;1.03;;
11835;SDS011;5977;51.972;7.640;2023-09-30T13:33:52;1.43;;;1.10;;
11835;SDS011;5977;51.972;7.640;2023-09-30T13:36:21;1.43;;;1.07;;
11835;SDS011;5977;51.972;7.640;2023-09-30T13:38:49;1.43;;;1.10;;
11835;SDS011;5977;51.972;7.640;2023-09-30T13:41:18;1.67;;;1.50;;
11835;SDS011;5977;51.972;7.640;2023-09-30T13:43:45;1.37;;;0.97;;
11835;SDS011;5977;51.972;7.640;2023-09-30T13:46:13;1.40;;;1.00;;
11835;SDS011;5977;51.972;7.640;2023-09-30T13:48:42;1.43;;;1.03;;
11835;SDS011;5977;51.972;7.640;2023-09-30T13:51:10;1.37;;;0.97;;
11835;SDS011;5977;51.972;7.640;2023-09-30T13:53:40;1.40;;;0.97;;
11835;SDS011;5977;51.972;7.640;2023-09-30T13:56:09;1.30;;;0.90;;
11835;SDS011;5977;51.972;7.640;2023-09-30T13:58:37;1.33;;;1.00;;
11835;SDS011;5977;51.972;7.640;2023-09-30T14:01:05;1.30;;;0.93;;
11835;SDS011;5977;51.972;7.640;2023-09-30T14:03:34;1.30;;;0.90;;
11835;SDS011;5977;51.972;7.640;2023-09-30T14:06:02;1.37;;;1.00;;
11835;SDS011;5977;51.972;7.640;2023-09-30T14:08:36;1.33;;;0.97;;
11835;SDS011;5977;51.972;7.640;2023-09-30T14:11:06;1.33;;;1.00;;
11835;SDS011;5977;51.972;7.640;2023-09-30T14:13:34;1.30;;;1.00;;
11835;SDS011;5977;51.972;7.640;2023-09-30T14:16:02;1.33;;;1.03;;
11835;SDS011;5977;51.972;7.640;2023-09-30T14:18:31;1.37;;;1.00;;
11835;SDS011;5977;51.972;7.640;2023-09-30T14:20:59;1.37;;;1.03;;
11835;SDS011;5977;51.972;7.640;2023-09-30T14:23:27;1.40;;;1.03;;
11835;SDS011;5977;51.972;7.640;2023-09-30T14:25:55;1.37;;;1.00;;
11835;SDS011;5977;51.972;7.640;2023-09-30T14:28:25;1.40;;;1.07;;
11835;SDS011;5977;51.972;7.640;2023-09-30T14:30:53;1.37;;;1.00;;
11835;SDS011;5977;51.972;7.640;2023-09-30T14:33:21;1.40;;;1.07;;
11835;SDS011;5977;51.972;7.640;2023-09-30T14:35:48;1.40;;;1.07;;
11835;SDS011;5977;51.972;7.640;2023-09-30T14:38:16;1.40;;;1.07;;
11835;SDS011;5977;51.972;7.640;2023-09-30T14:40:44;1.47;;;1.10;;
11835;SDS011;5977;51.972;7.640;2023-09-30T14:43:12;1.50;;;1.10;;
11835;SDS011;5977;51.972;7.640;2023-09-30T14:45:42;1.43;;;1.07;;
11835;SDS011;5977;51.972;7.640;2023-09-30T14:48:10;1.43;;;1.07;;
11835;SDS011;5977;51.972;7.640;2023-09-30T14:50:47;1.47;;;1.10;;
11835;SDS011;5977;51.972;7.640;2023-09-30T14:53:15;1.50;;;1.07;;
11835;SDS011;5977;51.972;7.640;2023-09-30T14:55:43;1.50;;;1.10;;
11835;SDS011;5977;51.972;7.640;2023-09-30T14:58:11;1.47;;;1.17;;
11835;SDS011;5977;51.972;7.640;2023-09-30T15:00:39;1.50;;;1.10;;
11835;SDS011;5977;51.972;7.640;2023-09-30T15:03:09;1.50;;;1.10;;
11835;SDS011;5977;51.972;7.640;2023-09-30T15:05:37;1.50;;;1.13;;
11835;SDS011;5977;51.972;7.640;2023-09-30T15:08:05;1.50;;;1.10;;
11835;SDS011;5977;51.972;7.640;2023-09-30T15:10:34;1.47;;;1.10;;
11835;SDS011;5977;51.972;7.640;2023-09-30T15:13:02;1.47;;;1.10;;
11835;SDS011;5977;51.972;7.640;2023-09-30T15:15:35;1.47;;;1.10;;
11835;SDS011;5977;51.972;7.640;2023-09-30T15:18:05;1.50;;;1.10;;
11835;SDS011;5977;51.972;7.640;2023-09-30T15:20:37;1.50;;;1.10;;
11835;SDS011;5977;51.972;7.640;2023-09-30T15:23:06;1.50;;;1.10;;
11835;SDS011;5977;51.972;7.640;2023-09-30T15:25:38;1.50;;;1.10;;
11835;SDS011;5977;51.972;7.640;2023-09-30T15:28:07;1.50;;;1.13;;
11835;SDS011;5977;51.972;7.640;2023-09-30T15:30:35;1.50;;;1.10;;
11835;SDS011;5977;51.972;7.640;2023-09-30T15:33:05;1.50;;;1.17;;